Terminal Aerodrome Forecast
Issued by NWS

Home | Current Version | Previous Version | Text Only | Print | Product List | Glossary Off
Versions: 1 2 3 4 5 6 7 8 9 10 11 12 13 14 15

000
FTUS43 KFGF 140520
TAFBJI
TAF
KBJI 140520Z 1406/1506 00000KT P6SM SCT250
     FM141300 VRB03KT P6SM BKN110
     FM141800 08008KT P6SM BKN090
     FM142100 04007KT P6SM -RA BKN060
     FM150300 33006KT P6SM OVC035=

USA.gov is the U.S. government's official web portal to all federal, state and local government web resources and services.